createdAt,value
2024-02-13T00:01:06.512Z,53.27
2024-02-13T00:03:33.321Z,53.34
2024-02-13T00:06:00.211Z,53.20
2024-02-13T00:08:33.277Z,53.37
2024-02-13T00:11:10.977Z,53.25
2024-02-13T00:13:37.826Z,53.34
2024-02-13T00:16:04.586Z,53.41
2024-02-13T00:18:31.396Z,53.48
2024-02-13T00:20:58.236Z,53.44
2024-02-13T00:23:25.133Z,53.63
2024-02-13T00:25:51.920Z,53.60
2024-02-13T00:28:18.762Z,53.85
2024-02-13T00:30:45.553Z,53.72
2024-02-13T00:33:12.425Z,53.81
2024-02-13T00:35:39.327Z,53.65
2024-02-13T00:38:06.107Z,53.88
2024-02-13T00:40:32.892Z,53.89
2024-02-13T00:42:59.648Z,53.69
2024-02-13T00:45:26.510Z,53.80
2024-02-13T00:47:53.397Z,53.68
2024-02-13T00:50:20.299Z,54.30
2024-02-13T00:52:47.111Z,54.20
2024-02-13T00:55:13.926Z,54.23
2024-02-13T00:57:40.814Z,53.95
2024-02-13T01:00:07.763Z,54.04
2024-02-13T01:02:34.585Z,54.09
2024-02-13T01:05:01.435Z,53.82
2024-02-13T01:07:28.180Z,54.15
2024-02-13T01:09:54.983Z,54.00
2024-02-13T01:12:21.800Z,54.11
2024-02-13T01:14:48.647Z,53.92
2024-02-13T01:17:15.506Z,54.01
2024-02-13T01:19:42.351Z,54.00
2024-02-13T01:22:09.135Z,53.89
2024-02-13T01:24:35.934Z,53.69
2024-02-13T01:27:02.740Z,53.74
2024-02-13T01:29:29.589Z,53.42
2024-02-13T01:31:56.407Z,53.52
2024-02-13T01:34:23.241Z,53.62
2024-02-13T01:36:50.119Z,53.60
2024-02-13T01:39:16.930Z,53.45
2024-02-13T01:41:43.792Z,53.56
2024-02-13T01:44:10.778Z,53.35
2024-02-13T01:46:37.711Z,53.43
2024-02-13T01:49:04.892Z,53.30
2024-02-13T01:51:31.852Z,53.33
2024-02-13T01:53:58.741Z,53.39
2024-02-13T01:56:25.702Z,53.33
2024-02-13T01:58:52.517Z,52.96
2024-02-13T02:01:19.285Z,53.08
2024-02-13T02:03:46.102Z,52.70
2024-02-13T02:06:13.031Z,51.58
2024-02-13T02:08:39.884Z,51.78
2024-02-13T02:11:06.787Z,52.52
2024-02-13T02:13:33.600Z,52.42
2024-02-13T02:16:00.391Z,52.24
2024-02-13T02:18:27.485Z,52.53
2024-02-13T02:20:54.699Z,52.32
2024-02-13T02:23:21.735Z,50.11
2024-02-13T02:25:48.547Z,51.40
2024-02-13T02:28:15.343Z,52.16
2024-02-13T02:30:42.105Z,51.85
2024-02-13T02:33:09.009Z,51.84
2024-02-13T02:35:36.109Z,51.55
2024-02-13T02:38:02.906Z,51.67
2024-02-13T02:40:29.704Z,51.62
2024-02-13T02:42:56.646Z,51.73
2024-02-13T02:45:23.725Z,50.53
2024-02-13T02:47:50.594Z,50.02
2024-02-13T02:50:17.497Z,51.41
2024-02-13T02:52:44.336Z,50.98
2024-02-13T02:55:11.131Z,51.51
2024-02-13T02:57:37.901Z,51.17
2024-02-13T03:00:04.771Z,51.29
2024-02-13T03:02:31.649Z,51.35
2024-02-13T03:04:58.472Z,51.21
2024-02-13T03:07:25.336Z,51.20
2024-02-13T03:09:52.144Z,51.11
2024-02-13T03:12:18.939Z,51.11
2024-02-13T03:14:45.885Z,51.28
2024-02-13T03:17:12.821Z,50.96
2024-02-13T03:19:39.794Z,51.03
2024-02-13T03:22:06.651Z,51.05
2024-02-13T03:24:33.421Z,50.69
2024-02-13T03:27:00.179Z,50.87
2024-02-13T03:29:27.030Z,50.21
2024-02-13T03:31:53.836Z,50.76
2024-02-13T03:34:20.780Z,50.01
2024-02-13T03:36:47.650Z,49.39
2024-02-13T03:39:14.435Z,50.23
2024-02-13T03:41:41.269Z,50.66
2024-02-13T03:44:08.088Z,50.52
2024-02-13T03:46:34.911Z,50.61
2024-02-13T03:49:01.843Z,50.44
2024-02-13T03:51:28.742Z,50.37
2024-02-13T03:53:55.601Z,50.88
2024-02-13T03:56:22.470Z,50.83
2024-02-13T03:58:49.256Z,50.63
2024-02-13T04:01:16.057Z,50.21
2024-02-13T04:03:42.918Z,50.29
2024-02-13T04:06:09.923Z,49.86
2024-02-13T04:08:36.850Z,50.36
2024-02-13T04:11:03.678Z,50.00
2024-02-13T04:13:30.519Z,49.26
2024-02-13T04:15:57.436Z,49.93
2024-02-13T04:18:24.319Z,50.03
2024-02-13T04:20:51.219Z,50.10
2024-02-13T04:23:18.152Z,50.16
2024-02-13T04:25:45.007Z,50.17
2024-02-13T04:28:11.815Z,49.61
2024-02-13T04:30:38.632Z,50.09
2024-02-13T04:33:05.508Z,49.97
2024-02-13T04:35:32.414Z,48.74
2024-02-13T04:37:59.296Z,49.32
2024-02-13T04:40:26.142Z,49.48
2024-02-13T04:42:53.056Z,49.67
2024-02-13T04:45:19.860Z,49.64
2024-02-13T04:47:46.800Z,48.48
2024-02-13T04:50:15.674Z,48.66
2024-02-13T04:52:43.380Z,48.30
2024-02-13T04:55:10.214Z,48.50
2024-02-13T04:57:37.075Z,48.68
2024-02-13T05:00:03.954Z,49.16
2024-02-13T05:02:30.795Z,49.29
2024-02-13T05:04:57.717Z,49.17
2024-02-13T05:07:24.788Z,49.09
2024-02-13T05:09:51.715Z,48.27
2024-02-13T05:12:18.611Z,48.21
2024-02-13T05:14:45.438Z,47.96
2024-02-13T05:17:12.388Z,49.40
2024-02-13T05:19:39.228Z,49.51
2024-02-13T05:22:06.076Z,50.21
2024-02-13T05:24:32.902Z,50.12
2024-02-13T05:26:59.734Z,49.88
2024-02-13T05:29:26.612Z,50.16
2024-02-13T05:31:53.453Z,49.83
2024-02-13T05:34:20.337Z,49.75
2024-02-13T05:36:47.375Z,49.53
2024-02-13T05:39:14.229Z,49.10
2024-02-13T05:41:41.139Z,49.71
2024-02-13T05:44:08.010Z,49.67
2024-02-13T05:46:34.822Z,49.39
2024-02-13T05:49:01.862Z,48.53
2024-02-13T05:51:28.710Z,47.96
2024-02-13T05:53:55.644Z,47.98
2024-02-13T05:56:27.322Z,48.63
2024-02-13T05:58:55.244Z,47.55
2024-02-13T06:01:22.175Z,47.21
2024-02-13T06:03:49.091Z,45.59
2024-02-13T06:06:16.201Z,46.82
2024-02-13T06:08:43.182Z,48.15
2024-02-13T06:11:10.147Z,48.39
2024-02-13T06:13:36.993Z,48.27
2024-02-13T06:16:03.816Z,47.83
2024-02-13T06:18:30.769Z,48.16
2024-02-13T06:20:57.866Z,48.41
2024-02-13T06:23:24.814Z,48.40
2024-02-13T06:25:51.634Z,48.55
2024-02-13T06:28:32.016Z,48.28
2024-02-13T06:30:58.901Z,48.14
2024-02-13T06:33:25.809Z,47.96
2024-02-13T06:35:52.761Z,47.75
2024-02-13T06:38:19.708Z,47.49
2024-02-13T06:40:46.509Z,47.36
2024-02-13T06:43:13.326Z,47.43
2024-02-13T06:45:40.189Z,47.18
2024-02-13T06:48:07.120Z,46.84
2024-02-13T06:50:34.036Z,46.99
2024-02-13T06:53:00.899Z,46.77
2024-02-13T06:55:27.754Z,46.83
2024-02-13T06:57:54.570Z,46.70
2024-02-13T07:00:21.374Z,46.54
2024-02-13T07:02:48.219Z,46.37
2024-02-13T07:05:15.105Z,46.39
2024-02-13T07:07:47.257Z,46.14
2024-02-13T07:10:15.746Z,46.11
2024-02-13T07:12:43.041Z,46.11
2024-02-13T07:15:10.280Z,45.96
2024-02-13T07:17:48.389Z,45.96
2024-02-13T07:20:23.131Z,45.81
2024-02-13T07:22:50.019Z,45.64
2024-02-13T07:25:16.952Z,45.54
2024-02-13T07:27:43.779Z,45.56
2024-02-13T07:30:10.558Z,45.36
2024-02-13T07:32:37.456Z,45.39
2024-02-13T07:35:04.361Z,45.43
2024-02-13T07:37:31.167Z,45.32
2024-02-13T07:39:57.983Z,45.21
2024-02-13T07:42:24.810Z,45.20
2024-02-13T07:44:51.613Z,45.02
2024-02-13T07:47:18.487Z,45.01
2024-02-13T07:49:45.345Z,45.00
2024-02-13T07:52:12.179Z,44.95
2024-02-13T07:54:38.954Z,44.82
2024-02-13T07:57:05.752Z,44.84
2024-02-13T07:59:32.604Z,44.66
2024-02-13T08:01:59.423Z,44.69
2024-02-13T08:04:26.284Z,44.69
2024-02-13T08:06:53.237Z,44.54
2024-02-13T08:09:20.135Z,44.63
2024-02-13T08:11:46.966Z,44.40
2024-02-13T08:14:13.949Z,44.50
2024-02-13T08:16:40.786Z,44.30
2024-02-13T08:19:07.686Z,44.55
2024-02-13T08:21:34.533Z,44.29
2024-02-13T08:24:01.443Z,44.27
2024-02-13T08:26:28.325Z,44.29
2024-02-13T08:28:55.154Z,44.16
2024-02-13T08:31:22.028Z,44.07
2024-02-13T08:33:49.244Z,44.21
2024-02-13T08:36:16.424Z,44.23
2024-02-13T08:38:43.401Z,44.10
2024-02-13T08:41:10.278Z,43.86
2024-02-13T08:43:37.059Z,44.05
2024-02-13T08:46:03.925Z,43.80
2024-02-13T08:48:30.960Z,44.03
2024-02-13T08:50:58.078Z,43.92
2024-02-13T08:53:24.989Z,43.78
2024-02-13T08:55:51.780Z,43.90
2024-02-13T08:58:18.562Z,43.71
2024-02-13T09:00:45.362Z,43.67
2024-02-13T09:03:12.205Z,43.93
2024-02-13T09:05:39.176Z,43.91
2024-02-13T09:08:06.055Z,43.90
2024-02-13T09:10:33.284Z,43.71
2024-02-13T09:13:00.083Z,43.77
2024-02-13T09:15:26.920Z,43.66
2024-02-13T09:17:53.899Z,43.61
2024-02-13T09:20:20.845Z,43.85
2024-02-13T09:22:47.674Z,43.67
2024-02-13T09:25:14.515Z,43.88
2024-02-13T09:27:41.330Z,43.87
2024-02-13T09:30:08.203Z,43.93
2024-02-13T09:32:35.004Z,43.84
2024-02-13T09:35:01.952Z,43.86
2024-02-13T09:37:28.817Z,43.83
2024-02-13T09:39:55.605Z,43.80
2024-02-13T09:42:22.392Z,43.84
2024-02-13T09:44:49.305Z,43.89
2024-02-13T09:47:16.208Z,43.94
2024-02-13T09:49:44.550Z,43.94
2024-02-13T09:52:11.669Z,43.99
2024-02-13T09:54:38.485Z,44.00
2024-02-13T09:57:05.332Z,43.96
2024-02-13T09:59:32.209Z,43.77
2024-02-13T10:01:59.043Z,43.92
2024-02-13T10:04:25.885Z,43.96
2024-02-13T10:06:52.956Z,43.94
2024-02-13T10:09:19.949Z,44.11
2024-02-13T10:11:46.820Z,44.02
2024-02-13T10:14:13.702Z,44.03
2024-02-13T10:16:40.547Z,44.23
2024-02-13T10:19:07.481Z,44.23
2024-02-13T10:21:34.366Z,44.33
2024-02-13T10:24:01.265Z,44.26
2024-02-13T10:26:28.210Z,44.27
2024-02-13T10:28:55.040Z,44.38
2024-02-13T10:31:21.837Z,44.39
2024-02-13T10:33:48.733Z,44.36
2024-02-13T10:36:15.649Z,44.52
2024-02-13T10:38:42.499Z,44.35
2024-02-13T10:41:09.355Z,44.36
2024-02-13T10:43:36.149Z,44.33
2024-02-13T10:46:03.003Z,44.33
2024-02-13T10:48:29.959Z,44.45
2024-02-13T10:50:56.983Z,44.43
2024-02-13T10:53:23.903Z,44.68
2024-02-13T10:55:50.689Z,44.49
2024-02-13T10:58:24.472Z,44.47
2024-02-13T11:00:55.526Z,44.53
2024-02-13T11:03:22.411Z,44.52
2024-02-13T11:05:49.278Z,44.58
2024-02-13T11:08:16.202Z,44.60
2024-02-13T11:10:43.063Z,44.59
2024-02-13T11:13:09.867Z,44.73
2024-02-13T11:15:36.692Z,44.67
2024-02-13T11:18:03.615Z,44.61
2024-02-13T11:20:30.552Z,44.76
2024-02-13T11:22:57.480Z,44.84
2024-02-13T11:25:24.390Z,44.67
2024-02-13T11:27:51.247Z,44.62
2024-02-13T11:30:18.203Z,44.66
2024-02-13T11:32:45.199Z,44.62
2024-02-13T11:35:12.610Z,44.45
2024-02-13T11:37:39.534Z,44.49
2024-02-13T11:40:06.371Z,44.55
2024-02-13T11:42:33.207Z,44.50
2024-02-13T11:45:02.306Z,44.40
2024-02-13T11:47:29.449Z,44.66
2024-02-13T11:49:56.542Z,44.41
2024-02-13T11:52:23.437Z,44.32
2024-02-13T11:54:50.237Z,44.28
2024-02-13T11:57:17.036Z,44.35
2024-02-13T11:59:44.307Z,44.38
2024-02-13T12:02:11.428Z,44.30
2024-02-13T12:04:38.297Z,44.40
2024-02-13T12:07:05.251Z,44.33
2024-02-13T12:09:32.072Z,44.33
2024-02-13T12:11:58.917Z,44.29
2024-02-13T12:14:26.388Z,44.39
2024-02-13T12:16:53.929Z,44.13
2024-02-13T12:19:20.782Z,44.23
2024-02-13T12:21:47.598Z,44.13
2024-02-13T12:24:14.488Z,44.04
2024-02-13T12:26:41.354Z,43.96
2024-02-13T12:29:08.227Z,44.02
2024-02-13T12:31:35.032Z,43.78
2024-02-13T12:34:01.992Z,43.88
2024-02-13T12:36:28.978Z,43.74
2024-02-13T12:38:55.813Z,43.71
2024-02-13T12:41:22.643Z,43.64
2024-02-13T12:43:49.618Z,43.54
2024-02-13T12:46:16.466Z,43.63
2024-02-13T12:48:43.349Z,43.48
2024-02-13T12:51:11.301Z,43.50
2024-02-13T12:53:38.721Z,43.36
2024-02-13T12:56:05.590Z,43.48
2024-02-13T12:58:32.392Z,43.30
2024-02-13T13:00:59.237Z,43.21
2024-02-13T13:03:26.074Z,43.21
2024-02-13T13:05:52.967Z,43.17
2024-02-13T13:08:19.894Z,43.10
2024-02-13T13:10:46.715Z,42.96
2024-02-13T13:13:13.543Z,42.77
2024-02-13T13:15:40.404Z,44.19
2024-02-13T13:18:08.377Z,46.43
2024-02-13T13:20:35.825Z,47.97
2024-02-13T13:23:02.715Z,48.62
2024-02-13T13:25:29.590Z,48.56
2024-02-13T13:27:56.416Z,48.65
2024-02-13T13:30:23.453Z,49.40
2024-02-13T13:32:50.560Z,49.72
2024-02-13T13:35:17.514Z,49.89
2024-02-13T13:37:44.337Z,49.35
2024-02-13T13:40:11.174Z,49.76
2024-02-13T13:42:38.010Z,49.29
2024-02-13T13:45:04.843Z,49.93
2024-02-13T13:47:31.732Z,49.75
2024-02-13T13:49:58.559Z,49.76
2024-02-13T13:52:25.379Z,49.54
2024-02-13T13:54:52.191Z,49.48
2024-02-13T13:57:19.377Z,49.48
2024-02-13T13:59:46.194Z,49.68
2024-02-13T14:02:12.992Z,49.43
2024-02-13T14:04:39.822Z,49.49
2024-02-13T14:07:06.688Z,49.18
2024-02-13T14:09:33.517Z,49.20
2024-02-13T14:12:00.382Z,49.22
2024-02-13T14:14:27.270Z,49.41
2024-02-13T14:16:54.131Z,48.92
2024-02-13T14:19:21.066Z,49.10
2024-02-13T14:21:47.938Z,48.97
2024-02-13T14:24:14.783Z,49.08
2024-02-13T14:26:41.700Z,49.10
2024-02-13T14:29:08.568Z,49.00
2024-02-13T14:31:35.507Z,48.70
2024-02-13T14:34:02.933Z,48.52
2024-02-13T14:36:29.798Z,48.81
2024-02-13T14:38:56.748Z,48.53
2024-02-13T14:41:23.756Z,48.34
2024-02-13T14:43:50.557Z,48.40
2024-02-13T14:46:17.354Z,48.21
2024-02-13T14:48:47.729Z,48.37
2024-02-13T14:51:15.031Z,48.40
2024-02-13T14:53:41.894Z,48.07
2024-02-13T14:56:08.828Z,47.85
2024-02-13T14:58:39.505Z,47.60
2024-02-13T15:01:06.888Z,47.71
2024-02-13T15:03:33.742Z,47.49
2024-02-13T15:06:00.676Z,47.49
2024-02-13T15:08:27.752Z,47.07
2024-02-13T15:10:54.583Z,46.95
2024-02-13T15:13:21.432Z,46.69
2024-02-13T15:15:50.684Z,46.79
2024-02-13T15:18:17.745Z,46.73
2024-02-13T15:20:45.042Z,46.60
2024-02-13T15:23:12.033Z,46.65
2024-02-13T15:25:38.837Z,46.65
2024-02-13T15:28:05.628Z,46.55
2024-02-13T15:30:34.414Z,46.44
2024-02-13T15:33:02.771Z,46.39
2024-02-13T15:35:29.734Z,46.25
2024-02-13T15:37:56.589Z,46.42
2024-02-13T15:40:23.441Z,46.43
2024-02-13T15:42:50.252Z,46.48
2024-02-13T15:45:17.054Z,46.44
2024-02-13T15:47:44.030Z,46.11
2024-02-13T15:50:10.888Z,46.00
2024-02-13T15:52:37.742Z,46.35
2024-02-13T15:55:04.567Z,45.64
2024-02-13T15:57:31.415Z,45.61
2024-02-13T15:59:58.214Z,45.84
2024-02-13T16:02:25.040Z,45.51
2024-02-13T16:04:51.834Z,45.74
2024-02-13T16:07:20.616Z,45.77
2024-02-13T16:09:47.973Z,45.36
2024-02-13T16:12:14.796Z,45.52
2024-02-13T16:14:41.661Z,45.41
2024-02-13T16:17:08.585Z,45.27
2024-02-13T16:19:35.434Z,45.45
2024-02-13T16:22:02.284Z,45.33
2024-02-13T16:24:29.122Z,44.95
2024-02-13T16:26:55.962Z,44.87
2024-02-13T16:29:22.806Z,44.84
2024-02-13T16:31:49.725Z,44.85
2024-02-13T16:34:16.741Z,44.59
2024-02-13T16:36:43.685Z,44.42
2024-02-13T16:39:10.535Z,44.80
2024-02-13T16:41:37.495Z,44.55
2024-02-13T16:44:04.309Z,44.49
2024-02-13T16:46:31.086Z,44.61
2024-02-13T16:48:58.056Z,44.36
2024-02-13T16:51:24.942Z,44.34
2024-02-13T16:53:51.889Z,44.48
2024-02-13T16:56:18.912Z,44.21
2024-02-13T16:58:45.840Z,44.56
2024-02-13T17:01:12.809Z,44.38
2024-02-13T17:03:39.715Z,44.09
2024-02-13T17:06:06.738Z,44.46
2024-02-13T17:08:33.707Z,44.31
2024-02-13T17:11:00.576Z,43.93
2024-02-13T17:13:27.418Z,43.78
2024-02-13T17:15:54.224Z,43.85
2024-02-13T17:18:21.227Z,43.92
2024-02-13T17:23:14.869Z,43.78
2024-02-13T17:25:41.675Z,43.67
2024-02-13T17:28:08.521Z,43.73
2024-02-13T17:30:35.322Z,43.58
2024-02-13T17:33:03.154Z,43.85
2024-02-13T17:35:30.231Z,44.14
2024-02-13T17:37:57.062Z,44.38
2024-02-13T17:40:23.885Z,44.18
2024-02-13T17:42:50.694Z,43.57
2024-02-13T17:45:17.487Z,43.17
2024-02-13T17:47:44.388Z,42.92
2024-02-13T17:50:11.369Z,42.74
2024-02-13T17:52:38.211Z,42.74
2024-02-13T17:55:08.523Z,42.46
2024-02-13T17:57:36.908Z,43.38
2024-02-13T18:00:03.914Z,44.24
2024-02-13T18:02:30.918Z,42.66
2024-02-13T18:04:57.747Z,43.19
2024-02-13T18:07:24.604Z,43.98
2024-02-13T18:09:51.402Z,43.72
2024-02-13T18:12:18.199Z,43.82
2024-02-13T18:14:45.052Z,43.56
2024-02-13T18:17:11.858Z,43.36
2024-02-13T18:19:38.709Z,43.40
2024-02-13T18:22:05.698Z,43.32
2024-02-13T18:24:32.567Z,43.44
2024-02-13T18:26:59.416Z,43.66
2024-02-13T18:29:26.348Z,43.61
2024-02-13T18:31:53.169Z,43.66
2024-02-13T18:34:20.101Z,43.69
2024-02-13T18:36:46.941Z,43.41
2024-02-13T18:39:13.752Z,43.76
2024-02-13T18:41:40.560Z,43.71
2024-02-13T18:44:07.338Z,43.49
2024-02-13T18:46:34.169Z,43.52
2024-02-13T18:49:01.082Z,43.61
2024-02-13T18:51:28.033Z,43.89
2024-02-13T18:53:54.842Z,43.70
2024-02-13T18:56:21.724Z,43.69
2024-02-13T18:58:48.569Z,44.07
2024-02-13T19:01:15.410Z,44.20
2024-02-13T19:03:42.267Z,44.06
2024-02-13T19:06:09.201Z,43.94
2024-02-13T19:08:36.167Z,44.19
2024-02-13T19:11:03.040Z,44.36
2024-02-13T19:13:29.826Z,44.23
2024-02-13T19:15:56.695Z,44.13
2024-02-13T19:18:23.711Z,44.08
2024-02-13T19:20:50.686Z,44.26
2024-02-13T19:23:17.553Z,44.35
2024-02-13T19:25:44.371Z,44.52
2024-02-13T19:28:11.166Z,44.61
2024-02-13T19:30:37.980Z,44.88
2024-02-13T19:33:04.989Z,44.45
2024-02-13T19:35:31.828Z,44.78
2024-02-13T19:37:58.623Z,44.48
2024-02-13T19:40:25.492Z,44.32
2024-02-13T19:42:52.332Z,44.72
2024-02-13T19:45:19.150Z,44.54
2024-02-13T19:47:46.006Z,45.49
2024-02-13T19:50:12.909Z,46.25
2024-02-13T19:52:39.770Z,46.88
2024-02-13T19:55:06.729Z,47.04
2024-02-13T19:57:33.578Z,47.46
2024-02-13T20:00:00.689Z,47.43
2024-02-13T20:02:27.586Z,47.66
2024-02-13T20:04:54.409Z,47.67
2024-02-13T20:07:21.316Z,47.64
2024-02-13T20:09:48.138Z,47.90
2024-02-13T20:12:15.045Z,47.84
2024-02-13T20:14:41.909Z,48.08
2024-02-13T20:17:08.876Z,48.17
2024-02-13T20:19:35.745Z,48.17
2024-02-13T20:22:02.648Z,48.28
2024-02-13T20:24:32.497Z,48.32
2024-02-13T20:27:00.269Z,48.41
2024-02-13T20:29:27.137Z,48.07
2024-02-13T20:31:54.034Z,48.18
2024-02-13T20:34:21.082Z,47.99
2024-02-13T20:36:48.042Z,47.98
2024-02-13T20:39:14.935Z,48.17
2024-02-13T20:41:41.789Z,48.16
2024-02-13T20:44:08.658Z,47.91
2024-02-13T20:46:35.491Z,47.70
2024-02-13T20:49:02.963Z,47.53
2024-02-13T20:51:30.007Z,47.92
2024-02-13T20:53:57.280Z,47.70
2024-02-13T20:56:25.262Z,47.74
2024-02-13T20:58:52.214Z,47.67
2024-02-13T21:01:19.209Z,47.79
2024-02-13T21:03:46.286Z,47.73
2024-02-13T21:06:13.196Z,47.54
2024-02-13T21:08:40.153Z,47.58
2024-02-13T21:11:07.026Z,47.54
2024-02-13T21:13:33.928Z,47.68
2024-02-13T21:16:00.818Z,47.79
2024-02-13T21:18:27.682Z,47.75
2024-02-13T21:20:54.647Z,47.31
2024-02-13T21:23:21.547Z,47.50
2024-02-13T21:25:48.374Z,47.63
2024-02-13T21:28:15.286Z,47.96
2024-02-13T21:30:42.173Z,47.69
2024-02-13T21:33:09.142Z,47.63
2024-02-13T21:35:36.095Z,47.80
2024-02-13T21:38:02.945Z,47.90
2024-02-13T21:40:29.856Z,47.78
2024-02-13T21:42:57.083Z,47.47
2024-02-13T21:45:23.870Z,47.70
2024-02-13T21:47:50.749Z,47.83
2024-02-13T21:50:17.786Z,47.98
2024-02-13T21:52:44.584Z,48.04
2024-02-13T21:55:11.412Z,48.46
2024-02-13T21:57:38.232Z,48.51
2024-02-13T22:00:05.433Z,48.41
2024-02-13T22:02:32.597Z,48.40
2024-02-13T22:04:59.458Z,48.43
2024-02-13T22:07:26.284Z,48.51
2024-02-13T22:09:53.127Z,48.61
2024-02-13T22:12:19.975Z,48.54
2024-02-13T22:14:46.849Z,48.49
2024-02-13T22:17:13.668Z,48.51
2024-02-13T22:19:40.649Z,48.43
2024-02-13T22:22:07.605Z,48.47
2024-02-13T22:24:34.459Z,48.74
2024-02-13T22:27:01.407Z,48.77
2024-02-13T22:29:28.374Z,48.51
2024-02-13T22:31:55.182Z,48.63
2024-02-13T22:34:22.108Z,48.69
2024-02-13T22:36:48.915Z,48.74
2024-02-13T22:39:15.699Z,48.82
2024-02-13T22:41:42.616Z,48.79
2024-02-13T22:44:09.512Z,48.91
2024-02-13T22:46:36.349Z,48.90
2024-02-13T22:49:03.137Z,49.01
2024-02-13T22:51:29.970Z,48.96
2024-02-13T22:53:56.874Z,49.13
2024-02-13T22:56:23.804Z,49.07
2024-02-13T22:58:50.652Z,49.34
2024-02-13T23:01:17.518Z,49.21
2024-02-13T23:03:44.388Z,49.21
2024-02-13T23:06:11.286Z,49.28
2024-02-13T23:08:38.098Z,49.22
2024-02-13T23:11:04.980Z,49.13
2024-02-13T23:13:37.779Z,49.20
2024-02-13T23:16:09.647Z,49.05
2024-02-13T23:18:36.602Z,49.25
2024-02-13T23:21:03.633Z,49.00
2024-02-13T23:23:30.876Z,49.07
2024-02-13T23:25:57.886Z,48.98
2024-02-13T23:28:24.748Z,48.95
2024-02-13T23:30:51.584Z,48.90
2024-02-13T23:33:18.514Z,48.95
2024-02-13T23:35:45.503Z,48.59
2024-02-13T23:38:12.358Z,48.82
2024-02-13T23:40:39.153Z,48.72
2024-02-13T23:43:05.980Z,48.75
2024-02-13T23:45:32.779Z,48.54
2024-02-13T23:47:59.689Z,48.47
2024-02-13T23:50:26.638Z,48.64
2024-02-13T23:52:53.570Z,48.58
2024-02-13T23:55:20.396Z,48.81
2024-02-13T23:57:47.375Z,48.58
